Franklin, Minnesota
Current Conditions -  °F | °C
As of 3:53 AM on Friday 24 Oct 2014 (Local Time) from KRWF Reporting Station
Clear Clear  
Wind Chill: 44°   Ceiling: Unl
Heat Index: 48°   Visibility: 10mi
Dew Point: 43°   Wind: 8mph
Humidity: 83%   Direction: 130°SE
Pressure: 29.86"   Gusts: NA
Location:  44.53°N, 94.88°W
Report Text: KRWF 240853Z AUTO 13007KT 10SM CLR 09/06 A2986 RMK AO2 SLP113 T00890061 58020
Loading
Personal Weather Stations






























Interactive Weather Map
Tropical Storm Tracking
New forecast layout! Learn more

10-Day Weather Forecast

Advertisements
Track Severe Weather on mobile